Time;durP1;ratioP1;P1;durP2;ratioP2;P2;SDS_P1;SDS_P2;PMS_P1;PMS_P2;Temp;Humidity;BMP_temperature;BMP_pressure;BME280_temperature;BME280_humidity;BME280_pressure;Samples;Min_cycle;Max_cycle;Signal;HPM_P1;HPM_P2
2022/03/22 00:00:58;;;;;;;27.07;25.97;;;23.00;45.30;;;;;;5053205;28;20566;-54
2022/03/22 00:03:25;;;;;;;28.53;27.40;;;23.00;45.20;;;;;;5053392;28;20756;-58
2022/03/22 00:05:54;;;;;;;29.80;28.40;;;23.00;45.20;;;;;;5052781;28;20440;-54
2022/03/22 00:08:22;;;;;;;29.20;28.00;;;23.00;45.20;;;;;;5052824;28;21004;-53
2022/03/22 00:10:49;;;;;;;27.20;26.10;;;23.00;45.10;;;;;;5052991;28;20465;-54
2022/03/22 00:13:16;;;;;;;29.07;27.87;;;22.90;45.10;;;;;;5053143;28;20452;-55
2022/03/22 00:15:44;;;;;;;26.20;25.20;;;22.90;45.10;;;;;;5053094;28;20444;-54
2022/03/22 00:18:11;;;;;;;28.80;27.60;;;22.90;45.20;;;;;;5052527;28;20445;-55
2022/03/22 00:20:37;;;;;;;27.70;26.50;;;22.90;45.20;;;;;;5052866;28;20468;-56
2022/03/22 00:23:05;;;;;;;29.90;28.70;;;22.90;45.20;;;;;;5052823;28;20444;-52
2022/03/22 00:25:32;;;;;;;26.73;25.63;;;22.80;45.20;;;;;;5052753;28;20440;-54
2022/03/22 00:28:01;;;;;;;28.20;27.00;;;22.80;45.30;;;;;;5052552;28;20484;-57
2022/03/22 00:30:29;;;;;;;28.90;27.77;;;22.80;45.30;;;;;;5051625;28;20483;-56
2022/03/22 00:32:58;;;;;;;27.30;26.20;;;22.80;45.30;;;;;;5052658;28;20791;-56
2022/03/22 00:35:29;;;;;;;27.10;26.00;;;22.70;45.20;;;;;;5052667;28;20447;-56
2022/03/22 00:37:57;;;;;;;26.63;25.63;;;22.70;45.40;;;;;;5052422;28;20437;-54
2022/03/22 00:40:28;;;;;;;29.30;28.10;;;22.80;45.40;;;;;;5052514;28;20468;-55
2022/03/22 00:42:55;;;;;;;27.80;26.60;;;22.80;45.40;;;;;;5052347;28;20444;-58
2022/03/22 00:45:24;;;;;;;26.53;25.30;;;22.90;45.40;;;;;;5052453;28;20451;-53
2022/03/22 00:47:52;;;;;;;27.57;26.47;;;22.90;45.30;;;;;;5052124;28;20444;-55
2022/03/22 00:50:21;;;;;;;26.90;25.90;;;22.90;45.20;;;;;;5052206;28;20468;-56
2022/03/22 00:52:47;;;;;;;29.43;28.23;;;22.90;45.20;;;;;;5052005;28;20451;-55
2022/03/22 00:55:15;;;;;;;26.90;25.80;;;22.80;45.20;;;;;;5052054;28;20531;-53
2022/03/22 00:57:44;;;;;;;27.30;26.20;;;22.80;45.20;;;;;;5052176;28;20464;-53
2022/03/22 01:00:13;;;;;;;28.30;27.10;;;22.80;45.10;;;;;;5051998;28;20473;-54
2022/03/22 01:02:43;;;;;;;27.03;25.93;;;22.80;45.10;;;;;;5052094;28;20444;-52
2022/03/22 01:05:13;;;;;;;26.50;25.37;;;22.80;45.20;;;;;;5051874;28;20815;-53
2022/03/22 01:07:41;;;;;;;27.33;26.23;;;22.80;45.20;;;;;;5051784;28;20458;-57
2022/03/22 01:10:10;;;;;;;26.83;25.77;;;22.80;45.30;;;;;;5051907;28;20821;-56
2022/03/22 01:12:39;;;;;;;28.00;26.80;;;22.70;45.20;;;;;;5051907;28;20457;-53
2022/03/22 01:15:10;;;;;;;27.20;26.10;;;22.70;45.30;;;;;;5051867;28;20444;-54
2022/03/22 01:17:37;;;;;;;27.37;26.27;;;22.70;45.30;;;;;;5051541;28;20449;-54
2022/03/22 01:20:05;;;;;;;28.07;26.87;;;22.70;45.40;;;;;;5051687;28;20470;-58
2022/03/22 01:22:32;;;;;;;29.10;27.80;;;22.60;45.40;;;;;;5051833;28;20813;-54
2022/03/22 01:24:59;;;;;;;27.17;26.07;;;22.70;45.50;;;;;;5051804;28;20454;-53
2022/03/22 01:27:26;;;;;;;28.30;27.20;;;22.80;45.50;;;;;;5051628;28;20500;-55
2022/03/22 01:29:53;;;;;;;28.43;27.23;;;22.80;45.40;;;;;;5051189;28;20484;-52
2022/03/22 01:32:21;;;;;;;28.80;27.60;;;22.80;45.30;;;;;;5051474;28;20444;-54
2022/03/22 01:34:48;;;;;;;29.07;27.87;;;22.80;45.30;;;;;;5051594;28;20445;-57
2022/03/22 01:37:14;;;;;;;27.53;26.40;;;22.80;45.30;;;;;;5051566;28;20453;-54
2022/03/22 01:39:41;;;;;;;27.30;26.20;;;22.80;45.20;;;;;;5051505;28;20465;-53
2022/03/22 01:42:08;;;;;;;27.50;26.20;;;22.80;45.20;;;;;;5051111;28;20449;-52
2022/03/22 01:44:35;;;;;;;26.27;25.27;;;22.80;45.20;;;;;;5051699;28;20452;-53
2022/03/22 01:47:03;;;;;;;27.43;26.33;;;22.80;45.20;;;;;;5051541;28;20449;-54
2022/03/22 01:49:31;;;;;;;27.10;26.00;;;22.80;45.20;;;;;;5051096;28;20514;-58
2022/03/22 01:51:58;;;;;;;26.70;25.63;;;22.70;45.20;;;;;;5051393;28;20957;-53
2022/03/22 01:54:25;;;;;;;26.47;25.47;;;22.70;45.10;;;;;;5051279;28;20821;-53
2022/03/22 01:56:52;;;;;;;27.50;26.40;;;22.70;45.10;;;;;;5051410;28;21012;-52
2022/03/22 01:59:19;;;;;;;28.13;26.93;;;22.70;45.20;;;;;;5051007;28;20475;-56
2022/03/22 02:07:19;;;;;;;29.30;28.10;;;22.60;45.20;;;;;;5051218;28;20432;-51
2022/03/22 02:09:46;;;;;;;29.00;27.77;;;22.60;45.20;;;;;;5051047;28;21059;-48
2022/03/22 02:12:13;;;;;;;28.33;27.10;;;22.50;45.20;;;;;;5051028;28;20440;-49
2022/03/22 02:14:40;;;;;;;27.37;26.27;;;22.50;45.30;;;;;;5051272;28;20444;-48
2022/03/22 02:17:08;;;;;;;28.03;26.90;;;22.60;45.40;;;;;;5051000;28;20449;-48
2022/03/22 02:19:39;;;;;;;27.70;26.60;;;22.60;45.30;;;;;;5050961;28;20460;-48
2022/03/22 02:22:09;;;;;;;29.03;27.83;;;22.70;45.30;;;;;;5051058;28;20444;-48
2022/03/22 02:24:38;;;;;;;28.77;27.47;;;22.70;45.20;;;;;;5031217;28;20441;-48
2022/03/22 02:27:05;;;;;;;29.37;28.17;;;22.70;45.20;;;;;;5031321;28;20452;-48
2022/03/22 02:29:32;;;;;;;28.37;27.17;;;22.60;45.10;;;;;;5030854;28;21056;-48
2022/03/22 02:31:59;;;;;;;29.50;28.30;;;22.60;45.10;;;;;;5031287;28;20476;-48
2022/03/22 02:34:25;;;;;;;27.37;26.27;;;22.60;45.10;;;;;;5031560;28;20543;-53
2022/03/22 02:36:52;;;;;;;27.93;26.73;;;22.60;45.00;;;;;;5050986;28;20453;-48
2022/03/22 02:39:19;;;;;;;27.90;26.70;;;22.60;45.00;;;;;;5050678;28;20447;-50
2022/03/22 02:41:50;;;;;;;27.93;26.83;;;22.60;45.00;;;;;;5051099;28;20809;-49
2022/03/22 02:44:17;;;;;;;27.33;26.10;;;22.60;45.00;;;;;;5050922;28;20449;-48
2022/03/22 02:46:43;;;;;;;30.10;28.77;;;22.60;45.10;;;;;;5050508;28;20444;-50
2022/03/22 02:49:10;;;;;;;27.63;26.43;;;22.60;45.10;;;;;;5050684;28;20854;-49
2022/03/22 02:51:37;;;;;;;27.30;26.20;;;22.60;45.10;;;;;;5050914;28;20444;-48
2022/03/22 02:54:04;;;;;;;27.10;26.00;;;22.60;45.10;;;;;;5053950;28;20875;-50
2022/03/22 02:56:31;;;;;;;27.63;26.53;;;22.70;45.20;;;;;;5054499;28;20444;-49
2022/03/22 02:58:59;;;;;;;27.57;26.47;;;22.70;45.10;;;;;;5053958;28;20497;-52
2022/03/22 03:01:26;;;;;;;28.23;27.03;;;22.70;45.10;;;;;;5054393;28;20499;-53
2022/03/22 03:03:52;;;;;;;28.70;27.40;;;22.70;45.10;;;;;;5054196;28;20539;-49
2022/03/22 03:06:19;;;;;;;30.30;29.00;;;22.70;45.00;;;;;;5054336;28;20447;-48
2022/03/22 03:08:46;;;;;;;28.10;26.90;;;22.70;45.00;;;;;;5054005;28;20492;-51
2022/03/22 03:11:13;;;;;;;29.30;28.00;;;22.70;44.90;;;;;;5053831;28;20460;-49
2022/03/22 03:16:25;;;;;;;27.60;26.50;;;22.70;45.00;;;;;;5054313;28;20964;-51
2022/03/22 03:18:52;;;;;;;27.90;26.70;;;22.70;45.00;;;;;;5053760;28;20441;-54
2022/03/22 03:21:19;;;;;;;27.27;26.10;;;22.60;44.90;;;;;;5053971;28;20465;-50
2022/03/22 03:23:46;;;;;;;30.40;29.20;;;22.60;44.90;;;;;;5054060;28;20463;-48
2022/03/22 03:26:12;;;;;;;28.20;27.10;;;22.60;44.90;;;;;;5053987;28;20450;-54
2022/03/22 03:28:39;;;;;;;29.40;28.10;;;22.60;44.90;;;;;;5053611;28;20452;-48
2022/03/22 03:31:06;;;;;;;29.57;28.27;;;22.50;44.90;;;;;;5053833;28;20464;-48
2022/03/22 03:33:34;;;;;;;29.27;27.93;;;22.50;45.00;;;;;;5053876;28;20814;-53
2022/03/22 03:36:02;;;;;;;29.17;27.97;;;22.50;45.00;;;;;;5053519;28;20452;-52
2022/03/22 03:38:28;;;;;;;30.00;28.70;;;22.50;45.00;;;;;;5053576;28;20456;-49
2022/03/22 03:43:54;;;;;;;30.00;28.60;;;22.60;45.00;;;;;;5011467;28;21010;-48
2022/03/22 03:49:07;;;;;;;31.50;30.20;;;22.60;44.90;;;;;;5034503;28;20505;-50
2022/03/22 03:51:34;;;;;;;30.57;29.30;;;22.60;44.90;;;;;;5053554;28;20444;-48
2022/03/22 03:54:01;;;;;;;31.50;30.20;;;22.50;44.80;;;;;;5053366;28;20449;-48
2022/03/22 03:56:28;;;;;;;27.77;26.57;;;22.50;44.80;;;;;;5053426;28;20448;-48
2022/03/22 03:58:56;;;;;;;30.97;29.67;;;22.50;44.80;;;;;;5053244;28;20443;-49
2022/03/22 04:01:24;;;;;;;29.37;28.07;;;22.60;44.90;;;;;;5053132;28;20487;-53
2022/03/22 04:03:50;;;;;;;29.83;28.47;;;22.70;44.70;;;;;;5053230;28;20451;-48
2022/03/22 04:06:18;;;;;;;31.13;29.83;;;22.90;44.70;;;;;;5053081;28;20632;-49
2022/03/22 04:08:45;;;;;;;31.73;30.40;;;23.00;44.50;;;;;;5052885;28;20780;-48
2022/03/22 04:11:12;;;;;;;31.63;30.33;;;23.20;44.90;;;;;;5052953;28;21012;-48
2022/03/22 04:13:39;;;;;;;29.20;27.80;;;23.30;44.10;;;;;;5052796;28;20445;-48
2022/03/22 04:16:06;;;;;;;28.97;27.67;;;23.30;43.90;;;;;;5053170;28;20544;-48
2022/03/22 04:18:34;;;;;;;30.70;29.40;;;23.40;43.80;;;;;;5052678;28;20444;-49
2022/03/22 04:21:02;;;;;;;31.77;30.47;;;23.40;43.70;;;;;;5052957;28;20564;-48
2022/03/22 04:23:30;;;;;;;29.87;28.67;;;23.40;43.50;;;;;;5052638;28;20459;-48
2022/03/22 04:25:57;;;;;;;30.10;28.77;;;23.50;43.30;;;;;;5052862;28;20495;-48
2022/03/22 04:33:52;;;;;;;30.90;29.60;;;23.50;43.00;;;;;;5052767;28;20553;-54
2022/03/22 04:36:19;;;;;;;30.47;29.17;;;23.50;43.00;;;;;;5052397;28;20437;-51
2022/03/22 04:38:47;;;;;;;29.83;28.53;;;23.40;43.10;;;;;;5052367;28;20497;-53
2022/03/22 04:41:14;;;;;;;30.43;29.13;;;23.40;43.10;;;;;;5052563;28;20828;-55
2022/03/22 04:43:41;;;;;;;29.53;28.33;;;23.40;43.10;;;;;;5052456;28;20805;-50
2022/03/22 04:46:08;;;;;;;30.63;29.33;;;23.40;43.10;;;;;;5052490;28;20444;-50
2022/03/22 04:48:36;;;;;;;30.87;29.50;;;23.30;43.10;;;;;;5051982;28;20443;-51
2022/03/22 04:56:46;;;;;;;30.63;29.33;;;23.20;43.20;;;;;;5052356;28;21111;-48
2022/03/22 04:59:14;;;;;;;30.90;29.60;;;23.20;43.20;;;;;;5051689;28;20455;-48
2022/03/22 05:01:42;;;;;;;31.77;30.43;;;23.10;43.30;;;;;;5051873;28;20506;-53
2022/03/22 05:04:09;;;;;;;33.17;31.77;;;23.10;43.30;;;;;;5052110;28;20449;-53
2022/03/22 05:06:37;;;;;;;31.13;29.83;;;23.10;43.40;;;;;;5052009;28;20451;-48
2022/03/22 05:09:05;;;;;;;33.70;32.30;;;23.10;43.40;;;;;;5051844;28;20456;-49
2022/03/22 05:11:32;;;;;;;33.67;32.07;;;23.00;43.50;;;;;;5051658;28;20475;-48
2022/03/22 05:13:59;;;;;;;33.73;32.33;;;23.00;43.50;;;;;;5051687;28;20445;-52
2022/03/22 05:16:26;;;;;;;33.63;32.23;;;22.90;43.60;;;;;;5051487;28;20451;-50
2022/03/22 05:18:54;;;;;;;34.03;32.63;;;22.90;43.60;;;;;;5051621;28;20452;-50
2022/03/22 05:21:21;;;;;;;32.83;31.40;;;22.90;43.70;;;;;;5051827;28;20507;-51
2022/03/22 05:23:47;;;;;;;33.67;32.20;;;22.80;43.70;;;;;;5051730;28;20447;-52
2022/03/22 05:26:16;;;;;;;33.17;31.60;;;22.80;43.80;;;;;;5051739;28;20448;-49
2022/03/22 05:28:42;;;;;;;33.37;31.97;;;22.80;43.80;;;;;;5051588;28;20456;-48
2022/03/22 05:31:11;;;;;;;33.13;31.63;;;22.80;43.90;;;;;;5051571;28;20575;-48
2022/03/22 05:33:38;;;;;;;32.60;31.20;;;22.80;43.90;;;;;;5051608;28;20452;-49
2022/03/22 05:36:06;;;;;;;35.87;34.37;;;22.80;44.00;;;;;;5051374;28;20808;-48
2022/03/22 05:38:33;;;;;;;34.07;32.57;;;22.90;44.00;;;;;;5051294;28;20449;-48
2022/03/22 05:41:03;;;;;;;30.97;29.67;;;23.00;44.40;;;;;;5051528;28;20471;-48
2022/03/22 05:43:31;;;;;;;32.63;31.00;;;23.00;43.60;;;;;;5051556;28;21090;-49
2022/03/22 05:45:58;;;;;;;32.10;30.40;;;23.10;43.60;;;;;;5051244;28;20456;-48
2022/03/22 05:48:26;;;;;;;29.37;27.90;;;23.20;43.70;;;;;;5051258;28;20444;-48
2022/03/22 05:50:53;;;;;;;35.23;33.43;;;23.20;43.80;;;;;;5051328;28;20571;-53
2022/03/22 05:53:20;;;;;;;31.33;29.73;;;23.30;44.30;;;;;;5051427;28;20451;-57
2022/03/22 05:55:47;;;;;;;32.20;30.43;;;23.30;45.20;;;;;;5051265;28;20503;-55
2022/03/22 05:58:14;;;;;;;35.80;33.00;;;23.40;47.30;;;;;;5051142;28;20449;-52
2022/03/22 06:00:43;;;;;;;35.73;33.43;;;23.40;49.30;;;;;;5051164;28;20479;-54
2022/03/22 06:03:10;;;;;;;36.43;33.67;;;23.50;50.70;;;;;;5051446;28;20448;-56
2022/03/22 06:05:37;;;;;;;33.70;31.80;;;23.60;51.50;;;;;;5051113;28;20444;-52
2022/03/22 06:08:05;;;;;;;33.97;31.73;;;23.50;51.70;;;;;;5050868;28;20506;-49
2022/03/22 06:10:32;;;;;;;35.87;33.63;;;23.40;50.80;;;;;;5050271;28;20573;-54
2022/03/22 06:12:59;;;;;;;35.23;32.90;;;23.30;51.60;;;;;;5051055;28;20456;-52
2022/03/22 06:15:27;;;;;;;32.20;30.20;;;23.30;51.20;;;;;;5051156;28;20818;-50
2022/03/22 06:17:58;;;;;;;32.13;30.33;;;23.30;50.70;;;;;;5051060;28;20475;-53
2022/03/22 06:20:26;;;;;;;31.77;29.97;;;23.30;50.20;;;;;;5051099;28;20476;-50
2022/03/22 06:22:54;;;;;;;32.40;30.10;;;23.20;49.70;;;;;;5050693;28;20448;-54
2022/03/22 06:25:21;;;;;;;32.33;30.60;;;23.20;49.40;;;;;;5051184;28;20444;-54
2022/03/22 06:27:49;;;;;;;34.00;32.10;;;23.20;49.10;;;;;;5052112;28;20791;-51
2022/03/22 06:30:17;;;;;;;32.13;29.93;;;23.20;48.80;;;;;;5054610;28;20488;-51
2022/03/22 06:32:46;;;;;;;34.77;32.87;;;23.20;48.60;;;;;;5054989;28;20459;-52
2022/03/22 06:35:15;;;;;;;33.20;31.13;;;23.20;48.30;;;;;;5054816;28;20452;-55
2022/03/22 06:37:43;;;;;;;33.93;32.00;;;23.10;48.00;;;;;;5054716;28;20817;-52
2022/03/22 06:40:11;;;;;;;32.67;30.87;;;23.20;47.90;;;;;;5054725;28;20500;-55
2022/03/22 06:42:38;;;;;;;35.37;33.20;;;23.20;47.70;;;;;;5054671;28;20449;-53
2022/03/22 06:45:06;;;;;;;35.83;33.63;;;23.20;47.50;;;;;;5054636;28;20460;-53
2022/03/22 06:47:34;;;;;;;31.60;30.10;;;23.20;47.40;;;;;;5054413;28;20459;-53
2022/03/22 06:50:01;;;;;;;31.10;29.50;;;23.10;47.10;;;;;;5054442;28;20487;-55
2022/03/22 06:52:29;;;;;;;32.23;30.60;;;23.10;47.10;;;;;;5054527;28;20945;-52
2022/03/22 06:54:56;;;;;;;31.90;30.20;;;23.10;47.00;;;;;;5054530;28;20475;-54
2022/03/22 06:57:23;;;;;;;35.80;33.80;;;23.00;46.90;;;;;;5054435;28;20451;-53
2022/03/22 06:59:50;;;;;;;33.47;31.67;;;23.00;46.80;;;;;;5054230;28;20483;-51
2022/03/22 07:02:18;;;;;;;34.60;32.53;;;23.00;46.70;;;;;;5054266;28;20995;-53
2022/03/22 07:04:44;;;;;;;31.90;30.23;;;23.00;46.60;;;;;;5054416;28;20452;-55
2022/03/22 07:07:11;;;;;;;31.80;30.20;;;23.00;46.50;;;;;;5054283;28;20456;-54
2022/03/22 07:09:39;;;;;;;31.10;29.63;;;23.00;46.50;;;;;;5053971;28;20475;-54
2022/03/22 07:12:07;;;;;;;32.10;30.40;;;23.00;46.40;;;;;;5054127;28;20449;-50
2022/03/22 07:14:34;;;;;;;32.10;30.03;;;22.90;46.30;;;;;;5054050;28;20444;-49
2022/03/22 07:17:01;;;;;;;34.67;32.97;;;22.90;46.20;;;;;;5054346;28;20448;-52
2022/03/22 07:19:28;;;;;;;32.13;30.33;;;22.90;46.20;;;;;;5053802;28;20444;-52
2022/03/22 07:21:57;;;;;;;31.43;29.83;;;22.90;46.10;;;;;;5053985;28;20444;-53
2022/03/22 07:24:24;;;;;;;31.13;29.53;;;22.90;46.10;;;;;;5054125;28;20460;-54
2022/03/22 07:26:52;;;;;;;33.10;31.60;;;22.80;45.90;;;;;;5053924;28;20537;-54
2022/03/22 07:29:19;;;;;;;33.60;32.07;;;22.80;45.90;;;;;;5053503;28;20538;-53
2022/03/22 07:31:46;;;;;;;32.23;30.40;;;22.80;45.90;;;;;;5053841;28;21003;-51
2022/03/22 07:34:15;;;;;;;33.70;31.43;;;22.70;45.80;;;;;;5053766;28;20848;-53
2022/03/22 07:36:42;;;;;;;34.70;33.20;;;22.70;45.80;;;;;;5053724;28;20494;-51
2022/03/22 07:39:09;;;;;;;33.20;31.67;;;22.70;45.80;;;;;;5053092;28;20441;-50
2022/03/22 07:41:37;;;;;;;31.83;30.13;;;22.60;45.70;;;;;;5053548;28;20451;-53
2022/03/22 07:44:06;;;;;;;32.70;31.00;;;22.60;45.70;;;;;;5053650;28;20472;-52
2022/03/22 07:46:34;;;;;;;30.63;29.33;;;22.60;45.70;;;;;;5053551;28;20490;-53
2022/03/22 07:54:22;;;;;;;31.23;29.73;;;22.40;45.70;;;;;;5019779;28;20436;-52
2022/03/22 07:56:48;;;;;;;31.37;29.97;;;22.40;45.80;;;;;;5053328;28;20436;-53
2022/03/22 07:59:16;;;;;;;29.37;27.90;;;22.30;45.80;;;;;;5052870;28;20817;-49
2022/03/22 08:01:43;;;;;;;31.07;29.70;;;22.30;45.90;;;;;;5102856;22;20867;-48
2022/03/22 08:04:11;;;;;;;30.40;29.10;;;22.20;46.00;;;;;;5092318;28;20445;-52
2022/03/22 08:06:37;;;;;;;30.30;29.00;;;22.20;46.10;;;;;;5093439;28;20439;-49
2022/03/22 08:09:04;;;;;;;30.70;29.13;;;22.20;46.10;;;;;;5093150;28;20442;-49
2022/03/22 08:11:31;;;;;;;31.87;30.30;;;22.30;46.10;;;;;;5093225;28;20497;-48
2022/03/22 08:13:59;;;;;;;30.90;29.40;;;22.30;46.00;;;;;;5093219;28;20788;-48
2022/03/22 08:16:27;;;;;;;31.37;29.97;;;22.40;45.80;;;;;;5093295;28;20477;-53
2022/03/22 08:18:54;;;;;;;30.30;28.90;;;22.50;45.70;;;;;;5092995;28;20450;-51
2022/03/22 08:21:21;;;;;;;30.90;29.50;;;22.60;45.70;;;;;;5093092;28;20454;-48
2022/03/22 08:23:48;;;;;;;32.73;31.43;;;22.60;45.50;;;;;;5093007;28;20446;-48
2022/03/22 08:26:15;;;;;;;31.10;29.80;;;22.70;45.40;;;;;;5093033;28;20446;-53
2022/03/22 08:28:42;;;;;;;30.90;29.60;;;22.70;45.20;;;;;;5092800;28;20442;-48
2022/03/22 08:31:09;;;;;;;30.30;29.03;;;22.80;45.10;;;;;;5092846;28;20483;-50
2022/03/22 08:33:37;;;;;;;30.27;28.87;;;22.80;45.00;;;;;;5092842;28;20456;-49
2022/03/22 08:36:05;;;;;;;31.60;30.20;;;22.90;44.90;;;;;;5092746;28;20955;-48
2022/03/22 08:38:32;;;;;;;29.70;28.30;;;22.90;44.80;;;;;;5092558;28;20451;-48
2022/03/22 08:40:58;;;;;;;30.63;29.13;;;22.90;44.70;;;;;;5092633;28;20481;-52
2022/03/22 08:43:26;;;;;;;30.23;29.00;;;22.90;44.60;;;;;;5092723;28;20439;-50
2022/03/22 08:45:53;;;;;;;30.60;29.10;;;22.90;44.50;;;;;;5092812;28;20861;-50
2022/03/22 08:48:21;;;;;;;30.63;29.23;;;22.90;44.50;;;;;;5092399;28;20801;-49
2022/03/22 08:50:50;;;;;;;32.07;30.57;;;22.90;44.40;;;;;;5091699;28;20495;-49
2022/03/22 08:53:19;;;;;;;31.70;30.17;;;23.00;44.40;;;;;;5092602;28;20462;-51
2022/03/22 08:55:46;;;;;;;28.70;27.50;;;23.00;44.30;;;;;;5092549;28;20861;-49
2022/03/22 08:58:13;;;;;;;32.03;30.70;;;23.00;44.20;;;;;;5092180;28;20439;-48
2022/03/22 09:00:40;;;;;;;31.60;30.20;;;23.00;44.10;;;;;;5091624;28;20474;-48
2022/03/22 09:03:08;;;;;;;30.17;28.87;;;23.00;44.00;;;;;;5092078;28;20482;-51
2022/03/22 09:08:21;;;;;;;29.90;28.60;;;23.00;43.90;;;;;;5092147;28;20425;-51
2022/03/22 09:10:50;;;;;;;30.40;29.00;;;23.00;43.80;;;;;;5092043;28;20994;-49
2022/03/22 09:13:17;;;;;;;30.33;29.00;;;23.00;43.80;;;;;;5092214;28;20453;-48
2022/03/22 09:15:44;;;;;;;29.87;28.63;;;23.00;43.80;;;;;;5092264;28;20474;-53
2022/03/22 09:18:14;;;;;;;29.13;27.93;;;23.00;43.60;;;;;;5091820;28;20469;-48
2022/03/22 09:20:42;;;;;;;30.90;29.60;;;23.00;43.60;;;;;;5091871;28;20474;-48
2022/03/22 09:23:09;;;;;;;28.73;27.33;;;23.00;43.50;;;;;;5092154;28;20442;-48
2022/03/22 09:25:38;;;;;;;29.50;28.10;;;23.00;43.50;;;;;;5092075;28;20503;-52
2022/03/22 09:28:06;;;;;;;29.43;28.13;;;23.00;43.50;;;;;;5091751;28;20442;-48
2022/03/22 09:30:34;;;;;;;31.27;29.97;;;23.00;43.50;;;;;;5091737;28;20561;-51
2022/03/22 09:33:02;;;;;;;30.50;29.03;;;22.90;43.40;;;;;;5091967;28;20450;-48
2022/03/22 09:35:29;;;;;;;28.60;27.40;;;22.90;43.30;;;;;;5091844;28;20458;-49
2022/03/22 09:37:56;;;;;;;29.57;28.30;;;23.00;43.40;;;;;;5091649;28;20446;-52
2022/03/22 09:40:25;;;;;;;29.77;28.47;;;23.00;43.30;;;;;;5091670;28;20462;-51
2022/03/22 09:42:54;;;;;;;29.60;28.40;;;23.00;43.30;;;;;;5091883;28;20450;-48
2022/03/22 09:45:25;;;;;;;29.43;28.10;;;23.00;43.20;;;;;;5091825;28;20503;-48
2022/03/22 09:47:52;;;;;;;29.67;28.50;;;22.90;43.10;;;;;;5091675;28;20442;-48
2022/03/22 09:50:20;;;;;;;28.87;27.57;;;22.90;43.00;;;;;;5091484;28;20548;-48
2022/03/22 09:52:47;;;;;;;30.30;29.00;;;23.00;43.00;;;;;;5091825;28;20519;-48
2022/03/22 09:55:16;;;;;;;30.47;29.07;;;23.00;43.00;;;;;;5091598;28;20443;-48
2022/03/22 09:57:43;;;;;;;30.33;29.03;;;23.00;42.60;;;;;;5091521;28;20454;-49
2022/03/22 10:00:15;;;;;;;29.93;28.73;;;23.00;42.60;;;;;;5091392;28;20474;-48
2022/03/22 10:02:42;;;;;;;29.40;28.13;;;23.00;42.60;;;;;;5094564;28;20438;-48
2022/03/22 10:05:22;;;;;;;29.40;28.10;;;23.00;42.70;;;;;;5095805;28;20950;-49
2022/03/22 10:07:58;;;;;;;30.40;29.10;;;23.00;42.70;;;;;;5095597;28;20852;-48
2022/03/22 10:10:25;;;;;;;29.80;28.60;;;23.00;42.80;;;;;;5095543;28;20861;-53
2022/03/22 10:12:57;;;;;;;29.87;28.67;;;23.00;42.80;;;;;;5095678;28;20457;-48
2022/03/22 10:15:30;;;;;;;29.10;28.00;;;23.10;42.80;;;;;;5095887;28;20516;-53
2022/03/22 10:18:04;;;;;;;30.10;28.90;;;23.10;42.60;;;;;;5095354;28;20450;-54
2022/03/22 10:20:32;;;;;;;30.63;29.40;;;23.20;42.70;;;;;;5095480;28;20524;-53
2022/03/22 10:23:00;;;;;;;30.20;28.90;;;23.30;42.70;;;;;;5095387;28;20935;-54
2022/03/22 10:25:27;;;;;;;30.40;29.10;;;23.30;42.30;;;;;;5095417;28;20442;-53
2022/03/22 10:27:55;;;;;;;28.30;27.20;;;23.40;42.20;;;;;;5095090;28;20442;-49
2022/03/22 10:30:22;;;;;;;30.53;29.23;;;23.50;42.10;;;;;;5095168;28;20462;-53
2022/03/22 10:32:51;;;;;;;30.00;28.80;;;23.50;41.90;;;;;;5095198;28;20481;-48
2022/03/22 10:35:20;;;;;;;30.13;28.83;;;23.60;41.80;;;;;;5095238;28;20442;-49
2022/03/22 10:37:48;;;;;;;31.20;29.90;;;23.60;41.90;;;;;;5095029;28;20449;-48
2022/03/22 10:40:25;;;;;;;34.73;33.33;;;23.60;41.60;;;;;;5094999;28;20466;-50
2022/03/22 10:42:53;;;;;;;34.50;33.10;;;23.70;41.60;;;;;;5095148;28;20953;-53
2022/03/22 10:45:20;;;;;;;33.83;32.43;;;23.70;41.90;;;;;;5095200;28;20457;-50
2022/03/22 10:47:46;;;;;;;32.63;31.40;;;23.70;41.40;;;;;;5094868;28;20454;-51
2022/03/22 10:50:15;;;;;;;32.90;31.60;;;23.80;41.50;;;;;;5094907;28;20785;-48
2022/03/22 10:52:53;;;;;;;35.30;33.90;;;23.80;41.40;;;;;;5094839;28;20482;-49
2022/03/22 10:55:21;;;;;;;35.37;34.00;;;23.80;41.30;;;;;;5094692;28;20442;-48
2022/03/22 10:57:53;;;;;;;33.57;32.27;;;23.80;41.30;;;;;;5094636;28;20454;-52
2022/03/22 11:00:21;;;;;;;31.67;30.47;;;23.80;41.20;;;;;;5094559;28;20470;-48
2022/03/22 11:02:51;;;;;;;32.90;31.50;;;23.90;41.20;;;;;;5074240;28;20455;-49
2022/03/22 11:05:20;;;;;;;28.50;27.40;;;23.90;41.20;;;;;;5060082;28;20539;-48
2022/03/22 11:07:48;;;;;;;27.60;26.40;;;23.90;40.90;;;;;;5054245;28;20444;-49
2022/03/22 11:10:19;;;;;;;29.73;28.57;;;24.00;41.00;;;;;;5055156;28;20478;-47
2022/03/22 11:12:47;;;;;;;33.40;31.90;;;24.10;41.50;;;;;;5072411;28;20552;-47
2022/03/22 11:15:15;;;;;;;32.00;30.70;;;24.10;42.50;;;;;;5073736;28;20941;-48
2022/03/22 11:17:43;;;;;;;27.83;26.63;;;24.10;42.90;;;;;;5072827;28;20487;-47
2022/03/22 11:20:13;;;;;;;33.83;32.33;;;24.20;42.90;;;;;;5056126;28;20218;-48
2022/03/22 11:22:48;;;;;;;32.27;30.77;;;24.30;43.00;;;;;;5054196;28;20445;-47
2022/03/22 11:25:20;;;;;;;33.10;31.60;;;24.30;42.70;;;;;;5054088;28;20444;-49
2022/03/22 11:27:58;;;;;;;32.80;31.30;;;24.40;42.80;;;;;;5053930;28;20452;-47
2022/03/22 11:30:27;;;;;;;31.50;30.10;;;24.40;42.70;;;;;;5071786;28;20463;-47
2022/03/22 11:35:51;;;;;;;31.40;30.10;;;24.50;42.80;;;;;;5074106;28;20422;-47
2022/03/22 11:38:42;;;;;;;30.43;29.10;;;24.50;42.80;;;;;;5072847;28;20940;-48
2022/03/22 11:44:17;;;;;;;32.30;30.83;;;25.10;42.60;;;;;;5053696;28;20415;-47
2022/03/22 11:46:45;;;;;;;33.17;31.77;;;26.40;41.50;;;;;;5054520;28;20437;-52
2022/03/22 11:49:14;;;;;;;32.00;30.60;;;27.80;39.50;;;;;;5072961;28;20443;-50
2022/03/22 11:51:55;;;;;;;33.20;31.80;;;28.80;37.60;;;;;;5073336;28;20491;-53
2022/03/22 11:54:25;;;;;;;30.73;29.43;;;29.70;36.00;;;;;;5073612;28;20519;-48
2022/03/22 11:56:54;;;;;;;30.20;29.00;;;30.50;34.60;;;;;;5057253;28;20448;-54
2022/03/22 11:59:22;;;;;;;32.37;30.97;;;31.10;33.60;;;;;;5052093;28;20455;-50
2022/03/22 12:02:00;;;;;;;33.77;32.27;;;31.60;32.50;;;;;;5053124;28;20468;-48
2022/03/22 12:04:36;;;;;;;31.60;30.20;;;32.30;31.70;;;;;;5052918;28;20816;-48
2022/03/22 12:07:03;;;;;;;30.40;29.10;;;32.90;30.90;;;;;;5053120;28;20811;-48
2022/03/22 12:09:32;;;;;;;32.80;31.40;;;33.50;30.00;;;;;;5053021;28;20206;-53
2022/03/22 12:12:00;;;;;;;33.00;31.60;;;34.00;29.60;;;;;;5052939;28;20236;-49
2022/03/22 12:14:28;;;;;;;31.35;30.05;;;34.30;29.20;;;;;;5053343;28;20209;-46
2022/03/22 12:16:56;;;;;;;32.78;31.38;;;34.60;28.90;;;;;;5053048;28;20208;-47
2022/03/22 12:19:27;;;;;;;34.05;32.65;;;34.80;28.50;;;;;;5052635;28;20201;-50
2022/03/22 12:21:55;;;;;;;31.45;30.15;;;35.00;28.20;;;;;;5052741;28;20217;-46
2022/03/22 12:24:23;;;;;;;33.28;31.88;;;35.10;28.10;;;;;;5052589;28;20197;-48
2022/03/22 12:26:52;;;;;;;31.13;29.83;;;35.20;27.90;;;;;;5052161;28;20198;-49
2022/03/22 12:29:19;;;;;;;32.85;31.45;;;35.30;27.70;;;;;;5052667;28;20472;-48
2022/03/22 12:31:50;;;;;;;34.35;32.85;;;35.50;27.70;;;;;;5052675;28;20233;-48
2022/03/22 12:34:17;;;;;;;35.75;34.35;;;35.70;27.50;;;;;;5052692;28;20207;-45
2022/03/22 12:36:44;;;;;;;35.92;34.53;;;35.90;27.20;;;;;;5052651;28;20201;-46
2022/03/22 12:39:11;;;;;;;37.08;35.58;;;36.00;27.10;;;;;;5052299;28;20205;-48
2022/03/22 12:41:39;;;;;;;35.88;34.28;;;36.20;27.00;;;;;;5052309;28;20699;-46
2022/03/22 12:44:07;;;;;;;33.80;32.50;;;36.40;26.80;;;;;;5052533;28;20562;-48
2022/03/22 12:46:35;;;;;;;35.83;34.38;;;36.50;26.60;;;;;;5052475;28;20213;-48
2022/03/22 12:49:02;;;;;;;33.50;32.17;;;36.50;26.50;;;;;;5052162;28;20613;-47
2022/03/22 12:51:31;;;;;;;35.70;34.20;;;36.70;26.50;;;;;;5052273;28;20233;-46
2022/03/22 12:53:58;;;;;;;32.70;31.40;;;36.80;26.30;;;;;;5052469;28;20201;-47
2022/03/22 12:56:25;;;;;;;30.08;28.88;;;36.90;26.20;;;;;;5052194;28;20212;-46
2022/03/22 12:58:52;;;;;;;29.65;28.45;;;36.90;26.10;;;;;;5052159;28;20210;-49
2022/03/22 13:01:21;;;;;;;28.75;27.55;;;37.10;26.00;;;;;;5052034;28;20228;-50
2022/03/22 13:03:48;;;;;;;30.88;29.58;;;37.10;25.90;;;;;;5052281;28;20209;-50
2022/03/22 13:06:16;;;;;;;30.48;29.25;;;37.10;25.90;;;;;;5052159;28;20205;-52
2022/03/22 13:11:28;;;;;;;33.67;32.38;;;37.30;25.70;;;;;;5052095;28;20298;-54
2022/03/22 13:16:41;;;;;;;34.67;33.33;;;37.20;25.60;;;;;;5052208;28;20276;-51